Terminal Aerodrome Forecast
Issued by NWS Upton, NY

Home | Current Version | Previous Version | Text Only | Print | Product List | Glossary On
Versions: 1 2 3 4 5 6 7 8 9 10 11 12 13 14 15 16 17 18 19 20 21 22 23 24 25 26 27 28
000
FTUS41 KOKX 021700
TAFEWR
TAF
KEWR 021728Z 0218/0324 04011KT P6SM BKN025
     FM022000 06009KT P6SM FEW025 BKN035
     FM022200 13007KT P6SM FEW025 BKN045
     FM030600 08005KT P6SM SCT025 BKN045
     FM031300 06006KT P6SM FEW030 BKN080
     FM031800 14009KT P6SM SCT030 BKN080=

USA.gov is the U.S. government's official web portal to all federal, state and local government web resources and services.